Time;durP1;ratioP1;P1;durP2;ratioP2;P2;SDS_P1;SDS_P2;PMS_P1;PMS_P2;Temp;Humidity;BMP_temperature;BMP_pressure;BME280_temperature;BME280_humidity;BME280_pressure;Samples;Min_cycle;Max_cycle;Signal;HPM_P1;HPM_P2
2022/04/07 00:00:19;;;;;;;2.60;1.30;;;;;;;;;;5034599;28;20112;-76
2022/04/07 00:02:45;;;;;;;3.03;1.30;;;;;;;;;;5035489;28;20754;-76
2022/04/07 00:05:11;;;;;;;2.47;1.40;;;;;;;;;;5035288;28;20028;-76
2022/04/07 00:07:36;;;;;;;2.33;1.25;;;;;;;;;;5034694;28;20040;-76
2022/04/07 00:10:02;;;;;;;4.43;1.40;;;;;;;;;;5034415;28;20032;-75
2022/04/07 00:12:27;;;;;;;2.05;1.38;;;;;;;;;;5034756;28;20053;-76
2022/04/07 00:14:53;;;;;;;2.38;1.20;;;;;;;;;;5035010;28;20492;-76
2022/04/07 00:17:18;;;;;;;3.03;1.45;;;;;;;;;;5033898;28;20083;-76
2022/04/07 00:19:44;;;;;;;5.82;1.30;;;;;;;;;;5035835;28;20116;-76
2022/04/07 00:22:09;;;;;;;2.03;1.30;;;;;;;;;;5036197;28;20470;-76
2022/04/07 00:24:34;;;;;;;3.57;1.40;;;;;;;;;;5035253;28;20270;-76
2022/04/07 00:26:59;;;;;;;1.70;1.20;;;;;;;;;;5035309;28;20751;-76
2022/04/07 00:29:25;;;;;;;1.63;1.20;;;;;;;;;;5034513;28;20474;-77
2022/04/07 00:31:57;;;;;;;2.10;1.20;;;;;;;;;;5034341;28;20445;-76
2022/04/07 00:34:23;;;;;;;3.80;1.30;;;;;;;;;;5034407;28;20258;-76
2022/04/07 00:36:48;;;;;;;2.47;1.27;;;;;;;;;;5034132;28;20083;-75
2022/04/07 00:39:13;;;;;;;3.25;1.35;;;;;;;;;;5033868;28;20534;-76
2022/04/07 00:41:39;;;;;;;2.30;1.27;;;;;;;;;;5034447;28;20486;-76
2022/04/07 00:44:08;;;;;;;3.30;1.40;;;;;;;;;;5036325;28;20727;-76
2022/04/07 00:46:34;;;;;;;4.80;1.40;;;;;;;;;;5037725;28;20025;-75
2022/04/07 00:48:59;;;;;;;2.17;1.30;;;;;;;;;;5037799;28;20022;-75
2022/04/07 00:51:24;;;;;;;3.03;1.20;;;;;;;;;;5036489;28;20553;-77
2022/04/07 00:53:50;;;;;;;2.85;1.30;;;;;;;;;;5038368;28;20739;-76
2022/04/07 00:56:15;;;;;;;2.33;1.20;;;;;;;;;;5038262;28;20037;-75
2022/04/07 00:58:41;;;;;;;2.78;1.38;;;;;;;;;;5038379;28;20025;-75
2022/04/07 01:01:08;;;;;;;3.00;1.30;;;;;;;;;;5038709;28;20022;-75
2022/04/07 01:03:34;;;;;;;2.05;1.38;;;;;;;;;;5039260;28;20051;-74
2022/04/07 01:06:01;;;;;;;2.22;1.38;;;;;;;;;;5039292;28;20036;-75
2022/04/07 01:08:26;;;;;;;2.47;1.42;;;;;;;;;;5039270;28;20034;-75
2022/04/07 01:10:52;;;;;;;3.45;1.48;;;;;;;;;;5039529;28;20030;-75
2022/04/07 01:13:18;;;;;;;2.88;1.40;;;;;;;;;;5038389;28;20030;-76
2022/04/07 01:15:43;;;;;;;2.88;1.42;;;;;;;;;;5041222;28;20034;-75
2022/04/07 01:18:09;;;;;;;2.83;1.40;;;;;;;;;;5040681;28;20079;-76
2022/04/07 01:20:34;;;;;;;2.10;1.20;;;;;;;;;;5042900;28;20259;-75
2022/04/07 01:23:00;;;;;;;2.13;1.23;;;;;;;;;;5035988;28;20479;-76
2022/04/07 01:25:29;;;;;;;2.97;1.40;;;;;;;;;;5037847;28;20026;-75
2022/04/07 01:27:54;;;;;;;2.58;1.13;;;;;;;;;;5037301;28;20048;-75
2022/04/07 01:30:20;;;;;;;3.67;1.40;;;;;;;;;;5037214;28;20475;-75
2022/04/07 01:32:49;;;;;;;1.85;1.27;;;;;;;;;;5035955;28;20513;-75
2022/04/07 01:35:15;;;;;;;2.40;1.15;;;;;;;;;;5037622;28;20021;-76
2022/04/07 01:37:43;;;;;;;1.75;1.08;;;;;;;;;;5037438;28;20030;-75
2022/04/07 01:40:11;;;;;;;1.98;1.20;;;;;;;;;;5036869;28;20021;-75
2022/04/07 01:42:37;;;;;;;2.95;1.35;;;;;;;;;;5036611;28;20486;-76
2022/04/07 01:45:04;;;;;;;1.98;1.30;;;;;;;;;;5036669;28;20041;-75
2022/04/07 01:47:33;;;;;;;2.92;1.40;;;;;;;;;;5034294;28;20025;-75
2022/04/07 01:50:06;;;;;;;2.75;1.15;;;;;;;;;;5035391;28;20159;-75
2022/04/07 01:52:33;;;;;;;1.75;1.17;;;;;;;;;;5035622;28;20025;-75
2022/04/07 01:55:00;;;;;;;3.25;1.40;;;;;;;;;;5033652;28;20026;-75
2022/04/07 01:57:26;;;;;;;2.10;1.23;;;;;;;;;;5035213;28;20027;-75
2022/04/07 01:59:52;;;;;;;1.17;1.05;;;;;;;;;;5036355;28;20072;-75
2022/04/07 02:02:18;;;;;;;2.70;1.38;;;;;;;;;;5037329;28;20053;-74
2022/04/07 02:04:55;;;;;;;2.75;1.17;;;;;;;;;;5035410;28;20036;-75
2022/04/07 02:07:21;;;;;;;2.72;1.20;;;;;;;;;;5036577;28;20025;-75
2022/04/07 02:09:47;;;;;;;2.45;1.33;;;;;;;;;;5018934;28;20104;-75
2022/04/07 02:12:12;;;;;;;2.92;1.20;;;;;;;;;;5035490;28;20101;-76
2022/04/07 02:14:38;;;;;;;3.08;1.45;;;;;;;;;;5035898;28;20025;-76
2022/04/07 02:17:04;;;;;;;6.57;1.85;;;;;;;;;;5035261;28;20398;-76
2022/04/07 02:19:29;;;;;;;2.13;1.15;;;;;;;;;;5033671;28;20025;-73
2022/04/07 02:21:54;;;;;;;3.75;1.25;;;;;;;;;;5033699;28;20041;-75
2022/04/07 02:24:20;;;;;;;3.72;1.40;;;;;;;;;;5035428;28;20025;-75
2022/04/07 02:26:46;;;;;;;3.47;1.30;;;;;;;;;;5035595;28;20059;-75
2022/04/07 02:29:11;;;;;;;1.95;1.30;;;;;;;;;;5035712;28;20044;-76
2022/04/07 02:31:36;;;;;;;1.80;1.15;;;;;;;;;;5034331;28;20025;-76
2022/04/07 02:34:01;;;;;;;2.10;1.20;;;;;;;;;;5035372;28;20028;-75
2022/04/07 02:36:27;;;;;;;1.92;1.20;;;;;;;;;;5035222;28;20345;-75
2022/04/07 02:38:52;;;;;;;3.13;1.25;;;;;;;;;;5035170;28;20025;-75
2022/04/07 02:41:17;;;;;;;1.17;0.93;;;;;;;;;;5035400;28;20374;-75
2022/04/07 02:43:42;;;;;;;2.00;1.20;;;;;;;;;;5034950;28;20822;-75
2022/04/07 02:46:07;;;;;;;1.27;1.02;;;;;;;;;;5034843;28;20786;-74
2022/04/07 02:48:33;;;;;;;2.47;1.00;;;;;;;;;;5035297;28;20044;-75
2022/04/07 02:50:58;;;;;;;1.38;0.98;;;;;;;;;;5034033;28;20060;-75
2022/04/07 02:53:25;;;;;;;1.52;0.95;;;;;;;;;;5034920;28;20030;-76
2022/04/07 02:55:50;;;;;;;1.60;1.10;;;;;;;;;;5034180;28;20025;-75
2022/04/07 02:58:15;;;;;;;7.38;3.00;;;;;;;;;;5035959;28;20602;-76
2022/04/07 03:00:41;;;;;;;10.80;3.53;;;;;;;;;;5035768;28;20025;-75
2022/04/07 03:03:06;;;;;;;6.45;2.65;;;;;;;;;;5036425;28;20255;-74
2022/04/07 03:05:32;;;;;;;11.23;3.72;;;;;;;;;;5038654;28;20375;-75
2022/04/07 03:07:57;;;;;;;14.17;3.57;;;;;;;;;;5039055;28;20482;-75
2022/04/07 03:10:22;;;;;;;10.82;3.00;;;;;;;;;;5040336;28;20835;-75
2022/04/07 03:12:47;;;;;;;6.38;1.80;;;;;;;;;;5037099;28;20066;-75
2022/04/07 03:15:13;;;;;;;7.93;3.00;;;;;;;;;;5036372;28;20025;-75
2022/04/07 03:17:38;;;;;;;8.55;2.20;;;;;;;;;;5034514;28;20100;-76
2022/04/07 03:20:05;;;;;;;2.78;1.50;;;;;;;;;;5037369;28;20112;-75
2022/04/07 03:22:30;;;;;;;2.92;1.42;;;;;;;;;;5037198;28;20033;-76
2022/04/07 03:24:55;;;;;;;3.90;1.50;;;;;;;;;;5036487;28;20036;-76
2022/04/07 03:27:21;;;;;;;3.70;1.50;;;;;;;;;;5036153;28;20544;-75
2022/04/07 03:29:46;;;;;;;2.78;1.27;;;;;;;;;;5036199;28;20372;-75
2022/04/07 03:32:11;;;;;;;2.38;1.40;;;;;;;;;;5036362;28;20032;-75
2022/04/07 03:34:37;;;;;;;2.42;1.17;;;;;;;;;;5036292;28;20032;-75
2022/04/07 03:37:03;;;;;;;2.25;1.10;;;;;;;;;;5037080;28;20442;-75
2022/04/07 03:39:29;;;;;;;2.47;1.20;;;;;;;;;;5038034;28;20501;-75
2022/04/07 03:41:54;;;;;;;4.32;1.40;;;;;;;;;;5040741;28;20026;-75
2022/04/07 03:44:19;;;;;;;1.60;1.00;;;;;;;;;;5041023;28;20048;-75
2022/04/07 03:46:45;;;;;;;1.80;1.08;;;;;;;;;;5040742;28;20263;-75
2022/04/07 03:49:10;;;;;;;3.55;1.42;;;;;;;;;;5039985;28;20021;-74
2022/04/07 03:51:35;;;;;;;4.63;1.27;;;;;;;;;;5039885;28;20030;-74
2022/04/07 03:54:01;;;;;;;2.00;1.30;;;;;;;;;;5038558;28;20018;-75
2022/04/07 03:56:26;;;;;;;1.77;1.05;;;;;;;;;;5034364;28;20032;-76
2022/04/07 03:58:51;;;;;;;2.85;1.30;;;;;;;;;;5034383;28;20021;-76
2022/04/07 04:01:17;;;;;;;2.33;1.30;;;;;;;;;;5033644;28;20095;-75
2022/04/07 04:03:43;;;;;;;2.50;1.38;;;;;;;;;;5033808;28;20487;-75
2022/04/07 04:06:08;;;;;;;1.90;1.20;;;;;;;;;;5033908;28;20040;-75
2022/04/07 04:08:33;;;;;;;1.95;1.38;;;;;;;;;;5033988;28;20021;-75
2022/04/07 04:10:59;;;;;;;2.25;1.25;;;;;;;;;;5034324;28;20033;-75
2022/04/07 04:13:26;;;;;;;3.33;1.20;;;;;;;;;;5034516;28;20026;-75
2022/04/07 04:15:51;;;;;;;2.53;1.20;;;;;;;;;;5034187;28;20108;-75
2022/04/07 04:18:16;;;;;;;2.78;1.20;;;;;;;;;;5033570;28;20065;-75
2022/04/07 04:20:41;;;;;;;1.87;1.00;;;;;;;;;;5037064;28;20017;-75
2022/04/07 04:23:07;;;;;;;4.82;1.30;;;;;;;;;;5038099;28;20258;-76
2022/04/07 04:25:32;;;;;;;1.85;1.20;;;;;;;;;;5037339;28;20032;-76
2022/04/07 04:27:57;;;;;;;2.22;1.10;;;;;;;;;;5036118;28;20025;-75
2022/04/07 04:30:23;;;;;;;2.43;1.30;;;;;;;;;;5037386;28;20030;-75
2022/04/07 04:32:48;;;;;;;4.13;1.40;;;;;;;;;;5037076;28;20262;-75
2022/04/07 04:35:14;;;;;;;1.55;1.10;;;;;;;;;;5037155;28;20048;-75
2022/04/07 04:37:39;;;;;;;2.08;1.15;;;;;;;;;;5036983;28;20430;-75
2022/04/07 04:40:05;;;;;;;1.92;1.15;;;;;;;;;;5036781;28;20080;-75
2022/04/07 04:42:30;;;;;;;1.10;1.00;;;;;;;;;;5036674;28;20053;-75
2022/04/07 04:44:56;;;;;;;1.60;0.90;;;;;;;;;;5036681;28;20066;-75
2022/04/07 04:47:21;;;;;;;1.15;0.90;;;;;;;;;;5036754;28;20127;-76
2022/04/07 04:49:47;;;;;;;8.60;1.20;;;;;;;;;;5037044;28;20055;-75
2022/04/07 04:52:12;;;;;;;2.17;1.00;;;;;;;;;;5036459;28;20030;-75
2022/04/07 04:54:38;;;;;;;1.63;1.10;;;;;;;;;;5036164;28;20418;-75
2022/04/07 04:57:03;;;;;;;1.40;0.95;;;;;;;;;;5037565;28;20036;-75
2022/04/07 04:59:29;;;;;;;1.42;0.98;;;;;;;;;;5040728;28;20025;-75
2022/04/07 05:01:55;;;;;;;1.00;0.90;;;;;;;;;;5040317;28;20478;-74
2022/04/07 05:04:20;;;;;;;1.58;0.80;;;;;;;;;;5037371;28;20037;-75
2022/04/07 05:06:45;;;;;;;1.17;1.00;;;;;;;;;;5036566;28;20052;-76
2022/04/07 05:09:10;;;;;;;2.72;1.00;;;;;;;;;;5038342;28;20028;-75
2022/04/07 05:11:36;;;;;;;2.60;1.00;;;;;;;;;;5038270;28;20052;-75
2022/04/07 05:14:01;;;;;;;1.65;1.00;;;;;;;;;;5037987;28;20028;-74
2022/04/07 05:16:27;;;;;;;1.60;0.93;;;;;;;;;;5037051;28;20462;-75
2022/04/07 05:18:52;;;;;;;1.83;0.93;;;;;;;;;;5037855;28;20032;-75
2022/04/07 05:21:17;;;;;;;2.33;0.90;;;;;;;;;;5037379;28;20025;-76
2022/04/07 05:23:43;;;;;;;1.10;0.82;;;;;;;;;;5037166;28;20255;-75
2022/04/07 05:26:09;;;;;;;1.20;0.80;;;;;;;;;;5037206;28;20052;-75
2022/04/07 05:28:34;;;;;;;1.55;0.77;;;;;;;;;;5037348;28;20037;-76
2022/04/07 05:30:59;;;;;;;0.75;0.75;;;;;;;;;;5034598;28;20025;-75
2022/04/07 05:33:25;;;;;;;1.75;0.80;;;;;;;;;;5036570;28;20029;-75
2022/04/07 05:35:51;;;;;;;1.50;0.82;;;;;;;;;;5036789;28;20041;-76
2022/04/07 05:38:16;;;;;;;1.55;0.90;;;;;;;;;;5036945;28;20491;-76
2022/04/07 05:40:42;;;;;;;1.40;0.90;;;;;;;;;;5034912;28;20092;-75
2022/04/07 05:43:08;;;;;;;1.45;0.70;;;;;;;;;;5036435;28;20029;-76
2022/04/07 05:45:34;;;;;;;1.10;0.80;;;;;;;;;;5036213;28;20079;-75
2022/04/07 05:47:59;;;;;;;2.28;0.82;;;;;;;;;;5036584;28;20486;-75
2022/04/07 05:50:25;;;;;;;1.23;0.85;;;;;;;;;;5036432;28;20124;-75
2022/04/07 05:52:50;;;;;;;2.10;0.75;;;;;;;;;;5036402;28;20032;-74
2022/04/07 05:55:15;;;;;;;2.27;0.70;;;;;;;;;;5036830;28;20025;-76
2022/04/07 05:57:40;;;;;;;2.50;0.83;;;;;;;;;;5037024;28;20275;-74
2022/04/07 06:00:12;;;;;;;3.08;1.00;;;;;;;;;;5036754;28;20278;-75
2022/04/07 06:02:37;;;;;;;3.67;0.82;;;;;;;;;;5037828;28;20036;-75
2022/04/07 06:05:04;;;;;;;0.98;0.70;;;;;;;;;;5038106;28;20030;-76
2022/04/07 06:07:30;;;;;;;1.30;0.70;;;;;;;;;;5038048;28;20071;-75
2022/04/07 06:09:55;;;;;;;1.43;0.70;;;;;;;;;;5038245;28;20021;-76
2022/04/07 06:12:20;;;;;;;1.70;0.93;;;;;;;;;;5037954;28;20270;-76
2022/04/07 06:14:45;;;;;;;1.05;0.70;;;;;;;;;;5037134;28;20263;-75
2022/04/07 06:17:11;;;;;;;1.43;0.63;;;;;;;;;;5037019;28;20017;-74
2022/04/07 06:19:36;;;;;;;3.03;0.70;;;;;;;;;;5037325;28;20274;-75
2022/04/07 06:22:05;;;;;;;2.33;0.85;;;;;;;;;;5036930;28;20263;-75
2022/04/07 06:24:30;;;;;;;1.75;0.70;;;;;;;;;;5036426;28;20024;-76
2022/04/07 06:26:55;;;;;;;4.73;1.00;;;;;;;;;;5036517;28;20025;-76
2022/04/07 06:29:20;;;;;;;1.38;1.00;;;;;;;;;;5036433;28;20265;-75
2022/04/07 06:31:45;;;;;;;3.20;0.77;;;;;;;;;;5036368;28;20101;-76
2022/04/07 06:34:11;;;;;;;2.10;0.80;;;;;;;;;;5037013;28;20308;-75
2022/04/07 06:36:36;;;;;;;2.83;0.87;;;;;;;;;;5037601;28;20308;-75
2022/04/07 06:39:01;;;;;;;0.90;0.80;;;;;;;;;;5037311;28;20247;-75
2022/04/07 06:41:27;;;;;;;2.03;0.70;;;;;;;;;;5039293;28;20262;-76
2022/04/07 06:43:52;;;;;;;0.98;0.60;;;;;;;;;;5037339;28;20025;-76
2022/04/07 06:46:17;;;;;;;1.42;0.68;;;;;;;;;;5036943;28;20056;-76
2022/04/07 06:48:43;;;;;;;3.85;0.70;;;;;;;;;;5037075;28;20041;-75
2022/04/07 06:51:09;;;;;;;1.08;0.70;;;;;;;;;;5037110;28;20029;-75
2022/04/07 06:53:34;;;;;;;0.80;0.80;;;;;;;;;;5036585;28;20029;-75
2022/04/07 06:56:00;;;;;;;1.98;0.80;;;;;;;;;;5036607;28;20056;-74
2022/04/07 06:58:25;;;;;;;2.00;0.70;;;;;;;;;;5036034;28;20032;-76
2022/04/07 07:00:50;;;;;;;0.90;0.77;;;;;;;;;;5035635;28;20259;-75
2022/04/07 07:03:16;;;;;;;3.50;0.50;;;;;;;;;;5036117;28;20108;-76
2022/04/07 07:05:42;;;;;;;1.85;0.75;;;;;;;;;;5036324;28;20266;-75
2022/04/07 07:08:21;;;;;;;1.13;0.80;;;;;;;;;;5036572;28;20351;-76
2022/04/07 07:10:48;;;;;;;3.13;0.73;;;;;;;;;;5035384;28;20093;-76
2022/04/07 07:13:16;;;;;;;1.40;0.50;;;;;;;;;;5036687;28;20025;-74
2022/04/07 07:15:41;;;;;;;0.50;0.50;;;;;;;;;;5034638;28;20021;-75
2022/04/07 07:18:07;;;;;;;0.70;0.70;;;;;;;;;;5035630;28;20040;-74
2022/04/07 07:20:32;;;;;;;0.57;0.52;;;;;;;;;;5034793;28;20018;-75
2022/04/07 07:22:58;;;;;;;0.68;0.60;;;;;;;;;;5034088;28;20060;-75
2022/04/07 07:25:23;;;;;;;2.63;0.73;;;;;;;;;;5032995;28;20471;-75
2022/04/07 07:27:49;;;;;;;0.52;0.50;;;;;;;;;;5035657;28;20078;-76
2022/04/07 07:30:15;;;;;;;0.95;0.65;;;;;;;;;;5039028;28;20028;-75
2022/04/07 07:32:46;;;;;;;1.67;0.50;;;;;;;;;;5038686;28;20437;-76
2022/04/07 07:35:12;;;;;;;2.15;0.85;;;;;;;;;;5036802;28;20040;-76
2022/04/07 07:37:47;;;;;;;1.45;0.80;;;;;;;;;;5035565;28;20029;-76
2022/04/07 07:40:12;;;;;;;0.50;0.50;;;;;;;;;;5035844;28;20490;-76
2022/04/07 07:42:37;;;;;;;0.95;0.50;;;;;;;;;;5034934;28;20045;-76
2022/04/07 07:45:04;;;;;;;1.63;0.40;;;;;;;;;;5036283;28;20029;-75
2022/04/07 07:47:29;;;;;;;1.20;0.60;;;;;;;;;;5035937;28;20028;-75
2022/04/07 07:49:54;;;;;;;1.90;0.80;;;;;;;;;;5035368;28;20348;-75
2022/04/07 07:52:20;;;;;;;0.40;0.40;;;;;;;;;;5033802;28;20628;-75
2022/04/07 07:54:45;;;;;;;0.82;0.60;;;;;;;;;;5037554;28;20108;-74
2022/04/07 07:57:11;;;;;;;0.93;0.40;;;;;;;;;;5038418;28;20029;-75
2022/04/07 07:59:36;;;;;;;2.95;0.40;;;;;;;;;;5038444;28;20021;-79
2022/04/07 08:02:02;;;;;;;2.77;0.43;;;;;;;;;;5039617;28;20029;-76
2022/04/07 08:04:27;;;;;;;1.38;0.43;;;;;;;;;;5040023;28;20255;-76
2022/04/07 08:06:52;;;;;;;0.80;0.40;;;;;;;;;;5040184;28;20036;-75
2022/04/07 08:09:17;;;;;;;0.65;0.40;;;;;;;;;;5039160;28;20022;-75
2022/04/07 08:11:42;;;;;;;0.67;0.40;;;;;;;;;;5039807;28;20057;-75
2022/04/07 08:14:08;;;;;;;0.38;0.30;;;;;;;;;;5040097;28;20265;-75
2022/04/07 08:16:34;;;;;;;2.38;0.40;;;;;;;;;;5040276;28;20028;-76
2022/04/07 08:19:00;;;;;;;0.70;0.47;;;;;;;;;;5039897;28;20028;-76
2022/04/07 08:21:25;;;;;;;0.30;0.30;;;;;;;;;;5040197;28;20018;-76
2022/04/07 08:23:50;;;;;;;0.77;0.50;;;;;;;;;;5040012;28;20037;-76
2022/04/07 08:26:16;;;;;;;0.47;0.47;;;;;;;;;;5040418;28;20025;-76
2022/04/07 08:28:41;;;;;;;0.57;0.40;;;;;;;;;;5040842;28;20265;-76
2022/04/07 08:31:06;;;;;;;2.08;0.40;;;;;;;;;;5041432;28;20429;-75
2022/04/07 08:33:31;;;;;;;0.63;0.37;;;;;;;;;;5043473;28;20091;-76
2022/04/07 08:35:57;;;;;;;0.30;0.30;;;;;;;;;;5039821;28;20263;-75
2022/04/07 08:38:22;;;;;;;0.40;0.40;;;;;;;;;;5038283;28;20336;-76
2022/04/07 08:40:51;;;;;;;0.75;0.38;;;;;;;;;;5039189;28;20105;-76
2022/04/07 08:43:17;;;;;;;0.35;0.30;;;;;;;;;;5038934;28;20391;-76
2022/04/07 08:45:44;;;;;;;2.70;0.50;;;;;;;;;;5039777;28;20036;-77
2022/04/07 08:48:12;;;;;;;1.75;0.40;;;;;;;;;;5038721;28;20036;-78
2022/04/07 08:50:41;;;;;;;0.20;0.20;;;;;;;;;;5038518;28;20029;-77
2022/04/07 08:53:07;;;;;;;6.35;0.65;;;;;;;;;;5037639;28;20036;-77
2022/04/07 08:55:33;;;;;;;0.45;0.30;;;;;;;;;;5037088;28;20029;-77
2022/04/07 08:57:59;;;;;;;0.75;0.30;;;;;;;;;;5035338;28;20026;-75
2022/04/07 09:00:25;;;;;;;0.30;0.30;;;;;;;;;;5035320;28;20409;-76
2022/04/07 09:02:52;;;;;;;0.85;0.45;;;;;;;;;;5036763;28;20482;-77
2022/04/07 09:05:23;;;;;;;0.65;0.40;;;;;;;;;;5035768;28;20033;-76
2022/04/07 09:07:50;;;;;;;0.85;0.40;;;;;;;;;;5035448;28;20025;-77
2022/04/07 09:10:18;;;;;;;1.95;0.40;;;;;;;;;;5038132;28;20088;-75
2022/04/07 09:12:44;;;;;;;1.15;0.32;;;;;;;;;;5037242;28;20367;-76
2022/04/07 09:15:12;;;;;;;0.63;0.40;;;;;;;;;;5038118;28;20074;-77
2022/04/07 09:17:56;;;;;;;0.60;0.47;;;;;;;;;;5037070;28;20069;-77
2022/04/07 09:20:22;;;;;;;;;;;;;;;;;;5038034;28;20032;-76
2022/04/07 09:23:00;;;;;;;1.42;0.43;;;;;;;;;;5037313;28;20286;-75
2022/04/07 09:25:26;;;;;;;0.35;0.35;;;;;;;;;;5036833;28;20032;-80
2022/04/07 09:27:53;;;;;;;0.55;0.30;;;;;;;;;;5034926;28;20113;-76
2022/04/07 09:30:20;;;;;;;0.55;0.38;;;;;;;;;;5036589;28;20040;-75
2022/04/07 09:32:45;;;;;;;2.75;0.60;;;;;;;;;;5036598;28;20029;-76
2022/04/07 09:35:12;;;;;;;0.77;0.30;;;;;;;;;;5035726;28;20032;-75
2022/04/07 09:37:39;;;;;;;1.10;0.40;;;;;;;;;;5037268;28;20075;-75
2022/04/07 09:40:09;;;;;;;0.20;0.20;;;;;;;;;;5037256;28;20029;-77
2022/04/07 09:42:34;;;;;;;0.70;0.47;;;;;;;;;;5036630;28;20390;-77
2022/04/07 09:45:01;;;;;;;0.45;0.30;;;;;;;;;;5036696;28;20025;-77
2022/04/07 09:47:38;;;;;;;0.70;0.40;;;;;;;;;;5035392;28;20417;-76
2022/04/07 09:50:05;;;;;;;0.63;0.30;;;;;;;;;;5035788;28;20025;-76
2022/04/07 09:52:31;;;;;;;0.40;0.35;;;;;;;;;;5035608;28;20052;-75
2022/04/07 09:55:02;;;;;;;0.13;0.13;;;;;;;;;;5037877;28;20490;-76
2022/04/07 09:57:28;;;;;;;0.20;0.20;;;;;;;;;;5038585;28;20029;-77
2022/04/07 09:59:54;;;;;;;0.40;0.30;;;;;;;;;;5036231;28;20028;-76
2022/04/07 10:02:19;;;;;;;0.55;0.30;;;;;;;;;;5037086;28;20022;-75
2022/04/07 10:04:45;;;;;;;1.60;0.40;;;;;;;;;;5036818;28;20061;-75
2022/04/07 10:07:12;;;;;;;0.40;0.40;;;;;;;;;;5037221;28;20094;-75
2022/04/07 10:09:40;;;;;;;1.10;0.30;;;;;;;;;;5036448;28;20025;-77
2022/04/07 10:12:05;;;;;;;0.85;0.15;;;;;;;;;;5035985;28;20394;-77
2022/04/07 10:14:34;;;;;;;1.30;0.40;;;;;;;;;;5036476;28;20083;-76
2022/04/07 10:16:59;;;;;;;1.20;0.38;;;;;;;;;;5035789;28;20034;-76
2022/04/07 10:19:34;;;;;;;0.40;0.40;;;;;;;;;;5036079;28;20166;-76
2022/04/07 10:22:41;;;;;;;0.38;0.30;;;;;;;;;;5036588;28;20342;-76
2022/04/07 10:25:07;;;;;;;0.38;0.28;;;;;;;;;;5035625;28;20096;-75
2022/04/07 10:27:43;;;;;;;0.93;0.38;;;;;;;;;;5036358;28;20056;-76
2022/04/07 10:30:11;;;;;;;0.32;0.32;;;;;;;;;;5035862;28;20031;-77
2022/04/07 10:32:52;;;;;;;0.30;0.30;;;;;;;;;;5035900;28;20530;-76
2022/04/07 10:35:30;;;;;;;2.15;0.30;;;;;;;;;;5035980;28;20113;-75
2022/04/07 10:38:00;;;;;;;0.43;0.28;;;;;;;;;;5034160;28;20060;-76
2022/04/07 10:40:50;;;;;;;1.30;0.55;;;;;;;;;;5035385;28;20100;-75
2022/04/07 10:43:20;;;;;;;2.80;0.75;;;;;;;;;;5034544;28;20032;-76
2022/04/07 10:46:06;;;;;;;2.83;0.30;;;;;;;;;;5034748;28;20051;-75
2022/04/07 10:48:58;;;;;;;0.98;0.40;;;;;;;;;;5035318;28;20029;-75
2022/04/07 10:51:41;;;;;;;2.20;0.38;;;;;;;;;;5035002;28;20482;-76
2022/04/07 10:54:06;;;;;;;0.57;0.40;;;;;;;;;;5035525;28;20025;-76
2022/04/07 10:56:38;;;;;;;3.27;0.40;;;;;;;;;;5035496;28;20026;-76
2022/04/07 10:59:09;;;;;;;0.75;0.45;;;;;;;;;;5035601;28;20254;-77
2022/04/07 11:01:52;;;;;;;0.73;0.30;;;;;;;;;;5034186;28;20018;-75
2022/04/07 11:04:18;;;;;;;0.30;0.30;;;;;;;;;;5035556;28;20441;-75
2022/04/07 11:07:08;;;;;;;0.32;0.30;;;;;;;;;;5035666;28;20049;-75
2022/04/07 11:09:55;;;;;;;1.88;0.30;;;;;;;;;;5036648;28;20081;-76
2022/04/07 11:12:28;;;;;;;0.60;0.30;;;;;;;;;;5035541;28;20033;-76
2022/04/07 11:15:24;;;;;;;0.30;0.30;;;;;;;;;;5035320;28;20028;-77
2022/04/07 11:17:52;;;;;;;0.40;0.28;;;;;;;;;;5018609;28;20025;-76
2022/04/07 11:20:25;;;;;;;0.65;0.20;;;;;;;;;;5034963;28;20390;-75
2022/04/07 11:23:01;;;;;;;0.65;0.45;;;;;;;;;;5035128;28;20044;-75
2022/04/07 11:25:40;;;;;;;2.40;0.43;;;;;;;;;;5034757;28;20138;-75
2022/04/07 11:28:22;;;;;;;0.52;0.35;;;;;;;;;;5034161;28;20530;-76
2022/04/07 11:30:49;;;;;;;0.60;0.40;;;;;;;;;;5033127;28;20083;-76
2022/04/07 11:33:20;;;;;;;0.50;0.50;;;;;;;;;;5035178;28;20037;-75
2022/04/07 11:36:00;;;;;;;0.30;0.30;;;;;;;;;;5034474;28;20030;-77
2022/04/07 11:38:43;;;;;;;0.50;0.40;;;;;;;;;;5034280;28;20029;-76
2022/04/07 11:41:10;;;;;;;0.40;0.40;;;;;;;;;;5033761;28;20056;-75
2022/04/07 11:43:39;;;;;;;2.47;0.45;;;;;;;;;;5034174;28;20073;-75
2022/04/07 11:46:04;;;;;;;0.85;0.60;;;;;;;;;;5034136;28;20048;-75
2022/04/07 11:48:34;;;;;;;0.52;0.40;;;;;;;;;;5033292;28;20108;-75
2022/04/07 11:51:00;;;;;;;1.75;0.40;;;;;;;;;;5034045;28;20036;-76
2022/04/07 11:53:29;;;;;;;0.63;0.40;;;;;;;;;;5034326;28;20025;-75
2022/04/07 11:56:10;;;;;;;0.35;0.35;;;;;;;;;;5034912;28;20026;-76
2022/04/07 11:58:35;;;;;;;2.28;0.40;;;;;;;;;;5033129;28;20033;-76
2022/04/07 12:01:07;;;;;;;0.20;0.20;;;;;;;;;;5032851;28;20474;-76
2022/04/07 12:03:32;;;;;;;0.20;0.20;;;;;;;;;;5034611;28;20373;-76
2022/04/07 12:06:00;;;;;;;0.10;0.10;;;;;;;;;;5035060;28;20063;-76
2022/04/07 12:08:25;;;;;;;0.47;0.30;;;;;;;;;;5035308;28;20033;-76
2022/04/07 12:10:51;;;;;;;0.70;0.68;;;;;;;;;;5033603;28;20037;-76
2022/04/07 12:13:16;;;;;;;0.30;0.30;;;;;;;;;;5034312;28;20027;-76
2022/04/07 12:15:44;;;;;;;0.88;0.35;;;;;;;;;;5034377;28;20466;-76
2022/04/07 12:18:09;;;;;;;2.88;0.30;;;;;;;;;;5036514;28;20040;-76
2022/04/07 12:20:38;;;;;;;0.20;0.20;;;;;;;;;;5036789;28;20022;-76
2022/04/07 12:23:11;;;;;;;0.30;0.30;;;;;;;;;;5035517;28;20298;-76
2022/04/07 12:25:38;;;;;;;0.20;0.20;;;;;;;;;;5034648;28;20034;-76
2022/04/07 12:28:12;;;;;;;0.45;0.30;;;;;;;;;;5034446;28;20269;-76
2022/04/07 12:30:51;;;;;;;0.95;0.50;;;;;;;;;;5034717;28;20017;-75
2022/04/07 12:34:05;;;;;;;0.35;0.32;;;;;;;;;;5032754;28;20029;-75
2022/04/07 12:36:30;;;;;;;0.40;0.40;;;;;;;;;;5012541;28;20042;-77
2022/04/07 12:39:00;;;;;;;3.42;0.28;;;;;;;;;;5012617;28;20057;-76
2022/04/07 12:41:41;;;;;;;5.65;0.60;;;;;;;;;;5027115;28;20045;-76
2022/04/07 12:44:08;;;;;;;0.20;0.20;;;;;;;;;;5035958;28;20429;-75
2022/04/07 12:46:46;;;;;;;2.05;0.25;;;;;;;;;;5037357;28;20060;-75
2022/04/07 12:49:12;;;;;;;0.30;0.30;;;;;;;;;;5035953;28;20061;-76
2022/04/07 12:51:38;;;;;;;0.20;0.20;;;;;;;;;;5035766;28;20084;-76
2022/04/07 12:54:14;;;;;;;0.13;0.10;;;;;;;;;;5037041;28;20030;-76
2022/04/07 12:56:43;;;;;;;0.25;0.22;;;;;;;;;;5037054;28;20048;-75
2022/04/07 12:59:11;;;;;;;3.17;0.32;;;;;;;;;;5037066;28;20076;-76
2022/04/07 13:01:37;;;;;;;0.95;0.30;;;;;;;;;;5036804;28;20056;-77
2022/04/07 13:04:06;;;;;;;0.32;0.25;;;;;;;;;;5036570;28;20079;-76
2022/04/07 13:06:32;;;;;;;0.80;0.40;;;;;;;;;;5036715;28;20490;-75
2022/04/07 13:08:57;;;;;;;0.93;0.30;;;;;;;;;;5035592;28;20040;-76
2022/04/07 13:11:36;;;;;;;0.85;0.30;;;;;;;;;;5038007;28;20359;-76
2022/04/07 13:14:09;;;;;;;1.27;0.40;;;;;;;;;;5037089;28;20057;-76
2022/04/07 13:16:35;;;;;;;0.83;0.30;;;;;;;;;;5038184;28;20419;-75
2022/04/07 13:19:02;;;;;;;0.38;0.30;;;;;;;;;;5036597;28;20394;-75
2022/04/07 13:21:28;;;;;;;0.40;0.40;;;;;;;;;;5037534;28;20128;-75
2022/04/07 13:23:54;;;;;;;3.75;0.60;;;;;;;;;;5036567;28;20048;-76
2022/04/07 13:26:20;;;;;;;0.55;0.50;;;;;;;;;;5035363;28;20363;-76
2022/04/07 13:28:50;;;;;;;1.38;0.30;;;;;;;;;;5034639;28;20022;-76
2022/04/07 13:31:16;;;;;;;0.63;0.30;;;;;;;;;;5036205;28;20035;-76
2022/04/07 13:33:41;;;;;;;0.20;0.10;;;;;;;;;;5036125;28;20101;-76
2022/04/07 13:36:07;;;;;;;0.40;0.40;;;;;;;;;;5036098;28;20068;-76
2022/04/07 13:38:33;;;;;;;1.25;0.43;;;;;;;;;;5036128;28;20029;-77
2022/04/07 13:41:00;;;;;;;2.83;0.20;;;;;;;;;;5035726;28;20065;-76
2022/04/07 13:43:26;;;;;;;0.40;0.40;;;;;;;;;;5034509;28;20026;-77
2022/04/07 13:45:51;;;;;;;0.73;0.40;;;;;;;;;;5034423;28;20105;-75
2022/04/07 13:48:17;;;;;;;0.70;0.40;;;;;;;;;;5036515;28;20033;-75
2022/04/07 13:50:42;;;;;;;0.40;0.40;;;;;;;;;;5036011;28;20021;-76
2022/04/07 13:53:08;;;;;;;0.27;0.23;;;;;;;;;;5035836;28;20033;-75
2022/04/07 13:55:33;;;;;;;0.25;0.25;;;;;;;;;;5037560;28;20254;-76
2022/04/07 13:57:59;;;;;;;0.38;0.38;;;;;;;;;;5036260;28;20033;-76
2022/04/07 14:00:25;;;;;;;5.22;0.50;;;;;;;;;;5036503;28;20025;-77
2022/04/07 14:02:50;;;;;;;0.45;0.30;;;;;;;;;;5036373;28;20096;-76
2022/04/07 14:05:15;;;;;;;0.38;0.30;;;;;;;;;;5036368;28;20064;-75
2022/04/07 14:07:40;;;;;;;0.30;0.30;;;;;;;;;;5034944;28;20421;-76
2022/04/07 14:10:06;;;;;;;3.63;0.40;;;;;;;;;;5035604;28;20017;-76
2022/04/07 14:12:32;;;;;;;0.95;0.40;;;;;;;;;;5036422;28;20340;-76
2022/04/07 14:14:57;;;;;;;0.43;0.30;;;;;;;;;;5036697;28;20025;-76
2022/04/07 14:17:22;;;;;;;0.30;0.27;;;;;;;;;;5036182;28;20026;-76
2022/04/07 14:19:47;;;;;;;0.50;0.30;;;;;;;;;;5034887;28;20266;-76
2022/04/07 14:22:13;;;;;;;0.30;0.27;;;;;;;;;;5035611;28;20290;-76
2022/04/07 14:24:38;;;;;;;3.28;0.20;;;;;;;;;;5034111;28;20277;-76
2022/04/07 14:27:03;;;;;;;0.30;0.30;;;;;;;;;;5034127;28;20021;-76
2022/04/07 14:29:29;;;;;;;0.50;0.40;;;;;;;;;;5036058;28;20263;-75
2022/04/07 14:31:54;;;;;;;0.25;0.25;;;;;;;;;;5034328;28;20030;-75
2022/04/07 14:34:20;;;;;;;0.40;0.40;;;;;;;;;;5035630;28;20029;-76
2022/04/07 14:36:45;;;;;;;0.25;0.20;;;;;;;;;;5035992;28;20259;-76
2022/04/07 14:39:10;;;;;;;0.47;0.20;;;;;;;;;;5036466;28;20052;-75
2022/04/07 14:41:36;;;;;;;1.03;0.40;;;;;;;;;;5035680;28;20509;-74
2022/04/07 14:44:01;;;;;;;0.32;0.30;;;;;;;;;;5037480;28;20744;-76